Simpson, Kansas
Current Conditions -  °F | °C
As of 3:55 PM on Sunday 23 Nov 2014 (Local Time) from KCNK Reporting Station
Overcast Overcast  
Wind Chill: 34°   Ceiling: 10000
Heat Index: 43°   Visibility: 10mi
Dew Point: 35°   Wind: 23mph
Humidity: 74%   Direction: 360°N
Pressure: 29.53"   Gusts: 31mph
Location:  39.39°N, 97.93°W
Report Text: KCNK 232155Z AUTO 36020G27KT 10SM OVC100 06/02 A2953 RMK AO2 PK WND 36027/2149 SLP001 T00610017
Loading
Personal Weather Stations






























Interactive Weather Map New forecast layout! Learn more

10-Day Weather Forecast

Advertisements
Track Severe Weather on mobile